Terminal Aerodrome Forecast
Issued by NWS Caribou, ME

Current Version | Previous Version | Text Only | Print | Product List | Glossary On
Versions: 1 2 3 4 5 6 7 8 9 10 11 12 13 14 15 16
725
FTUS41 KCAR 252113 AAA
TAFBGR
TAF AMD
KBGR 252113Z 2521/2618 14009KT P6SM OVC015
     FM260000 16008KT P6SM OVC009
     FM260200 14010KT 3SM -RA BR OVC008
     FM260300 15010KT 1SM -RA BR OVC006
     FM261600 17008KT 4SM BR BKN010=

USA.gov is the U.S. government's official web portal to all federal, state and local government web resources and services.